createdAt,value
2023-09-23T00:00:54.825Z,16.05
2023-09-23T00:01:54.198Z,16.03
2023-09-23T00:02:54.202Z,16.01
2023-09-23T00:03:54.280Z,15.98
2023-09-23T00:04:54.850Z,15.96
2023-09-23T00:05:54.756Z,15.95
2023-09-23T00:06:55.021Z,15.94
2023-09-23T00:07:54.775Z,15.92
2023-09-23T00:08:54.056Z,15.91
2023-09-23T00:09:54.705Z,15.90
2023-09-23T00:10:54.729Z,15.89
2023-09-23T00:11:54.701Z,15.89
2023-09-23T00:12:54.668Z,15.89
2023-09-23T00:13:54.239Z,15.90
2023-09-23T00:14:53.975Z,15.90
2023-09-23T00:15:54.681Z,15.91
2023-09-23T00:16:54.735Z,15.93
2023-09-23T00:17:54.620Z,15.94
2023-09-23T00:18:54.604Z,15.96
2023-09-23T00:19:53.966Z,15.97
2023-09-23T00:20:54.583Z,15.98
2023-09-23T00:21:53.897Z,16.00
2023-09-23T00:22:53.921Z,16.01
2023-09-23T00:23:54.552Z,16.03
2023-09-23T00:24:53.888Z,16.04
2023-09-23T00:25:53.912Z,16.06
2023-09-23T00:26:53.867Z,16.08
2023-09-23T00:27:54.507Z,16.10
2023-09-23T00:28:54.507Z,16.11
2023-09-23T00:29:53.813Z,16.12
2023-09-23T00:30:54.540Z,16.14
2023-09-23T00:31:53.863Z,16.16
2023-09-23T00:32:54.804Z,16.18
2023-09-23T00:33:54.442Z,16.20
2023-09-23T00:34:54.473Z,16.21
2023-09-23T00:35:54.418Z,16.22
2023-09-23T00:36:54.383Z,16.23
2023-09-23T00:37:54.402Z,16.23
2023-09-23T00:38:54.388Z,16.25
2023-09-23T00:39:54.366Z,16.25
2023-09-23T00:40:54.371Z,16.26
2023-09-23T00:41:54.376Z,16.27
2023-09-23T00:42:54.345Z,16.27
2023-09-23T00:43:54.363Z,16.27
2023-09-23T00:44:54.320Z,16.28
2023-09-23T00:45:54.316Z,16.28
2023-09-23T00:46:54.342Z,16.28
2023-09-23T00:47:54.372Z,16.30
2023-09-23T00:48:55.514Z,16.30
2023-09-23T00:49:54.311Z,16.32
2023-09-23T00:50:54.238Z,16.32
2023-09-23T00:51:54.258Z,16.33
2023-09-23T00:52:54.410Z,16.33
2023-09-23T00:53:54.216Z,16.34
2023-09-23T00:54:54.192Z,16.36
2023-09-23T00:55:54.358Z,16.37
2023-09-23T00:56:54.184Z,16.36
2023-09-23T00:57:54.178Z,16.38
2023-09-23T00:58:54.185Z,16.38
2023-09-23T00:59:54.140Z,16.37
2023-09-23T01:00:55.387Z,16.38
2023-09-23T01:01:54.201Z,16.36
2023-09-23T01:02:54.204Z,16.35
2023-09-23T01:03:54.254Z,16.34
2023-09-23T01:04:54.101Z,16.33
2023-09-23T01:05:55.861Z,16.32
2023-09-23T01:06:54.079Z,16.31
2023-09-23T01:07:54.141Z,16.31
2023-09-23T01:08:54.041Z,16.30
2023-09-23T01:09:54.040Z,16.30
2023-09-23T01:10:54.088Z,16.30
2023-09-23T01:11:54.025Z,16.29
2023-09-23T01:12:54.773Z,16.28
2023-09-23T01:13:54.003Z,16.27
2023-09-23T01:14:53.996Z,16.27
2023-09-23T01:15:54.001Z,16.26
2023-09-23T01:16:54.014Z,16.25
2023-09-23T01:17:53.964Z,16.25
2023-09-23T01:18:53.949Z,16.25
2023-09-23T01:19:53.944Z,16.25
2023-09-23T01:20:53.923Z,16.25
2023-09-23T01:21:53.915Z,16.26
2023-09-23T01:22:54.205Z,16.27
2023-09-23T01:23:53.885Z,16.27
2023-09-23T01:24:55.156Z,16.26
2023-09-23T01:25:53.907Z,16.25
2023-09-23T01:26:53.865Z,16.24
2023-09-23T01:27:53.845Z,16.24
2023-09-23T01:28:53.879Z,16.24
2023-09-23T01:29:55.618Z,16.24
2023-09-23T01:30:53.823Z,16.24
2023-09-23T01:31:53.881Z,16.21
2023-09-23T01:32:53.852Z,16.21
2023-09-23T01:33:53.804Z,16.19
2023-09-23T01:34:55.040Z,16.18
2023-09-23T01:35:53.756Z,16.15
2023-09-23T01:36:53.730Z,16.14
2023-09-23T01:37:53.762Z,16.12
2023-09-23T01:38:53.727Z,16.09
2023-09-23T01:39:53.021Z,16.07
2023-09-23T01:40:53.027Z,16.06
2023-09-23T01:41:53.690Z,16.04
2023-09-23T01:42:53.682Z,16.03
2023-09-23T01:43:53.010Z,16.02
2023-09-23T01:44:53.662Z,16.01
2023-09-23T01:45:54.441Z,16.00
2023-09-23T01:46:53.338Z,15.98
2023-09-23T01:47:53.692Z,15.97
2023-09-23T01:48:53.615Z,15.97
2023-09-23T01:49:53.616Z,15.96
2023-09-23T01:50:53.576Z,15.95
2023-09-23T01:51:53.612Z,15.96
2023-09-23T01:52:52.979Z,15.96
2023-09-23T01:53:52.863Z,15.96
2023-09-23T01:54:52.886Z,15.96
2023-09-23T01:55:52.881Z,15.96
2023-09-23T01:56:53.530Z,15.96
2023-09-23T01:57:54.276Z,15.95
2023-09-23T01:58:52.876Z,15.95
2023-09-23T01:59:52.837Z,15.93
2023-09-23T02:00:52.839Z,15.92
2023-09-23T02:01:53.622Z,15.91
2023-09-23T02:02:53.624Z,15.89
2023-09-23T02:03:52.812Z,15.89
2023-09-23T02:04:52.832Z,15.88
2023-09-23T02:05:52.757Z,15.88
2023-09-23T02:06:53.416Z,15.86
2023-09-23T02:07:53.430Z,15.86
2023-09-23T02:08:53.394Z,15.85
2023-09-23T02:09:54.171Z,15.83
2023-09-23T02:10:53.413Z,15.82
2023-09-23T02:11:53.361Z,15.79
2023-09-23T02:12:53.353Z,15.78
2023-09-23T02:13:53.391Z,15.77
2023-09-23T02:14:53.334Z,15.76
2023-09-23T02:15:53.324Z,15.75
2023-09-23T02:16:53.355Z,15.75
2023-09-23T02:17:53.358Z,15.73
2023-09-23T02:18:53.284Z,15.72
2023-09-23T02:19:53.368Z,15.71
2023-09-23T02:20:53.268Z,15.71
2023-09-23T02:21:54.007Z,15.69
2023-09-23T02:22:54.038Z,15.69
2023-09-23T02:23:53.230Z,15.70
2023-09-23T02:24:53.230Z,15.71
2023-09-23T02:25:53.351Z,15.72
2023-09-23T02:26:53.200Z,15.73
2023-09-23T02:27:52.523Z,15.74
2023-09-23T02:28:52.511Z,15.74
2023-09-23T02:29:52.493Z,15.74
2023-09-23T02:30:53.219Z,15.73
2023-09-23T02:31:52.480Z,15.72
2023-09-23T02:32:53.196Z,15.71
2023-09-23T02:33:54.398Z,15.69
2023-09-23T02:34:53.154Z,15.68
2023-09-23T02:35:53.113Z,15.67
2023-09-23T02:36:52.471Z,15.66
2023-09-23T02:37:53.162Z,15.64
2023-09-23T02:38:52.395Z,15.63
2023-09-23T02:39:53.065Z,15.62
2023-09-23T02:40:52.433Z,15.62
2023-09-23T02:41:52.388Z,15.61
2023-09-23T02:42:53.048Z,15.61
2023-09-23T02:43:53.065Z,15.60
2023-09-23T02:44:53.015Z,15.60
2023-09-23T02:45:54.241Z,15.59
2023-09-23T02:46:53.055Z,15.58
2023-09-23T02:47:52.996Z,15.57
2023-09-23T02:48:52.970Z,15.55
2023-09-23T02:49:52.295Z,15.55
2023-09-23T02:50:52.936Z,15.53
2023-09-23T02:51:52.935Z,15.52
2023-09-23T02:52:52.957Z,15.50
2023-09-23T02:53:52.234Z,15.49
2023-09-23T02:54:52.912Z,15.46
2023-09-23T02:55:52.262Z,15.42
2023-09-23T02:56:52.891Z,15.40
2023-09-23T02:57:52.411Z,15.37
2023-09-23T02:58:52.228Z,15.34
2023-09-23T02:59:52.833Z,15.30
2023-09-23T03:00:52.170Z,15.29
2023-09-23T03:01:52.225Z,15.26
2023-09-23T03:02:52.980Z,15.24
2023-09-23T03:03:52.904Z,15.21
2023-09-23T03:04:52.187Z,15.18
2023-09-23T03:05:52.896Z,15.16
2023-09-23T03:06:52.080Z,15.13
2023-09-23T03:07:52.782Z,15.10
2023-09-23T03:08:52.086Z,15.07
2023-09-23T03:09:52.727Z,15.04
2023-09-23T03:10:52.072Z,15.01
2023-09-23T03:11:52.975Z,14.98
2023-09-23T03:12:52.056Z,14.94
2023-09-23T03:13:52.715Z,14.91
2023-09-23T03:14:54.456Z,14.88
2023-09-23T03:15:51.997Z,14.83
2023-09-23T03:16:54.031Z,14.80
2023-09-23T03:17:52.686Z,14.77
2023-09-23T03:18:52.630Z,14.74
2023-09-23T03:19:51.999Z,14.71
2023-09-23T03:20:51.951Z,14.67
2023-09-23T03:21:51.933Z,14.64
2023-09-23T03:22:52.630Z,14.61
2023-09-23T03:23:51.926Z,14.58
2023-09-23T03:24:52.575Z,14.55
2023-09-23T03:25:52.713Z,14.53
2023-09-23T03:26:52.554Z,14.50
2023-09-23T03:27:51.864Z,14.48
2023-09-23T03:28:51.867Z,14.44
2023-09-23T03:29:51.829Z,14.41
2023-09-23T03:30:51.815Z,14.38
2023-09-23T03:31:51.906Z,14.36
2023-09-23T03:32:52.490Z,14.35
2023-09-23T03:33:51.877Z,14.33
2023-09-23T03:34:52.044Z,14.31
2023-09-23T03:35:52.450Z,14.29
2023-09-23T03:36:52.417Z,14.27
2023-09-23T03:37:52.425Z,14.25
2023-09-23T03:38:52.668Z,14.23
2023-09-23T03:39:52.398Z,14.21
2023-09-23T03:40:52.521Z,14.20
2023-09-23T03:41:51.707Z,14.18
2023-09-23T03:42:51.696Z,14.17
2023-09-23T03:43:51.708Z,14.16
2023-09-23T03:44:51.661Z,14.15
2023-09-23T03:45:53.581Z,14.14
2023-09-23T03:46:51.828Z,14.13
2023-09-23T03:47:51.730Z,14.10
2023-09-23T03:48:52.300Z,14.11
2023-09-23T03:49:52.582Z,14.11
2023-09-23T03:50:52.281Z,14.10
2023-09-23T03:51:51.640Z,14.09
2023-09-23T03:52:52.350Z,14.10
2023-09-23T03:53:52.250Z,14.10
2023-09-23T03:54:52.243Z,14.09
2023-09-23T03:55:51.645Z,14.10
2023-09-23T03:56:52.210Z,14.10
2023-09-23T03:57:53.434Z,14.11
2023-09-23T03:58:52.254Z,14.12
2023-09-23T03:59:51.900Z,14.14
2023-09-23T04:00:52.151Z,14.15
2023-09-23T04:01:51.580Z,14.18
2023-09-23T04:02:53.969Z,14.21
2023-09-23T04:03:51.532Z,14.25
2023-09-23T04:04:52.137Z,14.27
2023-09-23T04:05:52.098Z,14.29
2023-09-23T04:06:52.128Z,14.31
2023-09-23T04:07:51.777Z,14.33
2023-09-23T04:08:52.080Z,14.34
2023-09-23T04:09:52.356Z,14.35
2023-09-23T04:10:52.168Z,14.35
2023-09-23T04:11:53.178Z,14.37
2023-09-23T04:12:51.368Z,14.39
2023-09-23T04:13:51.413Z,14.37
2023-09-23T04:14:51.995Z,14.39
2023-09-23T04:15:51.444Z,14.39
2023-09-23T04:16:52.029Z,14.40
2023-09-23T04:17:51.343Z,14.40
2023-09-23T04:18:51.953Z,14.40
2023-09-23T04:19:52.038Z,14.39
2023-09-23T04:20:51.991Z,14.38
2023-09-23T04:21:53.177Z,14.36
2023-09-23T04:22:51.240Z,14.34
2023-09-23T04:23:51.255Z,14.33
2023-09-23T04:24:51.224Z,14.30
2023-09-23T04:25:51.974Z,14.28
2023-09-23T04:26:53.141Z,14.24
2023-09-23T04:27:51.194Z,14.21
2023-09-23T04:28:51.965Z,14.18
2023-09-23T04:29:51.941Z,14.15
2023-09-23T04:30:51.150Z,14.12
2023-09-23T04:31:51.854Z,14.09
2023-09-23T04:32:51.854Z,14.07
2023-09-23T04:33:53.079Z,14.04
2023-09-23T04:34:51.846Z,14.03
2023-09-23T04:35:51.131Z,14.03
2023-09-23T04:36:51.088Z,14.01
2023-09-23T04:37:51.755Z,14.02
2023-09-23T04:38:51.771Z,14.04
2023-09-23T04:39:51.815Z,14.06
2023-09-23T04:40:51.775Z,14.09
2023-09-23T04:41:51.705Z,14.13
2023-09-23T04:42:51.695Z,14.17
2023-09-23T04:43:51.750Z,14.21
2023-09-23T04:44:51.696Z,14.27
2023-09-23T04:45:53.457Z,14.29
2023-09-23T04:46:51.036Z,14.34
2023-09-23T04:47:51.000Z,14.38
2023-09-23T04:48:51.650Z,14.42
2023-09-23T04:49:51.703Z,14.45
2023-09-23T04:50:51.627Z,14.49
2023-09-23T04:51:52.203Z,14.53
2023-09-23T04:52:51.840Z,14.57
2023-09-23T04:53:51.608Z,14.61
2023-09-23T04:54:51.581Z,14.64
2023-09-23T04:55:51.627Z,14.68
2023-09-23T04:56:50.894Z,14.72
2023-09-23T04:57:52.797Z,14.76
2023-09-23T04:58:50.908Z,14.81
2023-09-23T04:59:50.836Z,14.84
2023-09-23T05:00:50.924Z,14.87
2023-09-23T05:01:50.867Z,14.89
2023-09-23T05:02:51.864Z,14.91
2023-09-23T05:03:50.844Z,14.93
2023-09-23T05:04:50.819Z,14.93
2023-09-23T05:05:51.485Z,14.95
2023-09-23T05:06:51.472Z,14.99
2023-09-23T05:07:51.494Z,15.03
2023-09-23T05:08:51.475Z,15.07
2023-09-23T05:09:52.191Z,15.11
2023-09-23T05:10:50.812Z,15.14
2023-09-23T05:11:50.717Z,15.17
2023-09-23T05:12:51.389Z,15.19
2023-09-23T05:13:51.422Z,15.21
2023-09-23T05:14:54.129Z,15.24
2023-09-23T05:15:50.696Z,15.25
2023-09-23T05:16:50.690Z,15.26
2023-09-23T05:17:50.774Z,15.27
2023-09-23T05:18:50.709Z,15.27
2023-09-23T05:19:50.807Z,15.28
2023-09-23T05:20:52.077Z,15.28
2023-09-23T05:21:52.066Z,15.29
2023-09-23T05:22:50.612Z,15.30
2023-09-23T05:23:50.592Z,15.30
2023-09-23T05:24:50.569Z,15.31
2023-09-23T05:25:50.587Z,15.32
2023-09-23T05:26:51.229Z,15.33
2023-09-23T05:27:50.531Z,15.36
2023-09-23T05:28:51.227Z,15.38
2023-09-23T05:29:51.204Z,15.39
2023-09-23T05:30:50.544Z,15.41
2023-09-23T05:31:50.544Z,15.39
2023-09-23T05:32:51.185Z,15.40
2023-09-23T05:33:51.428Z,15.41
2023-09-23T05:34:50.463Z,15.42
2023-09-23T05:35:50.462Z,15.45
2023-09-23T05:36:50.457Z,15.46
2023-09-23T05:37:51.561Z,15.47
2023-09-23T05:38:51.099Z,15.48
2023-09-23T05:39:50.407Z,15.49
2023-09-23T05:40:52.865Z,15.51
2023-09-23T05:41:51.069Z,15.53
2023-09-23T05:42:51.040Z,15.54
2023-09-23T05:43:51.067Z,15.55
2023-09-23T05:44:51.043Z,15.57
2023-09-23T05:45:51.287Z,15.58
2023-09-23T05:46:50.439Z,15.59
2023-09-23T05:47:50.554Z,15.61
2023-09-23T05:48:50.320Z,15.62
2023-09-23T05:49:50.330Z,15.64
2023-09-23T05:50:50.309Z,15.66
2023-09-23T05:51:50.280Z,15.65
2023-09-23T05:52:50.356Z,15.66
2023-09-23T05:53:50.239Z,15.68
2023-09-23T05:54:50.250Z,15.69
2023-09-23T05:55:50.969Z,15.72
2023-09-23T05:56:50.910Z,15.74
2023-09-23T05:57:50.921Z,15.74
2023-09-23T05:58:50.928Z,15.75
2023-09-23T05:59:52.711Z,15.77
2023-09-23T06:00:51.183Z,15.77
2023-09-23T06:01:50.906Z,15.78
2023-09-23T06:02:50.947Z,15.78
2023-09-23T06:03:50.489Z,15.80
2023-09-23T06:04:50.160Z,15.82
2023-09-23T06:05:50.803Z,15.85
2023-09-23T06:06:50.806Z,15.89
2023-09-23T06:07:50.851Z,15.91
2023-09-23T06:08:50.782Z,15.92
2023-09-23T06:09:50.104Z,15.95
2023-09-23T06:10:50.176Z,16.00
2023-09-23T06:11:50.761Z,16.04
2023-09-23T06:12:50.741Z,16.09
2023-09-23T06:13:50.091Z,16.14
2023-09-23T06:14:50.700Z,16.20
2023-09-23T06:15:50.007Z,16.26
2023-09-23T06:16:50.233Z,16.28
2023-09-23T06:17:50.168Z,16.31
2023-09-23T06:18:50.005Z,16.34
2023-09-23T06:19:50.666Z,16.33
2023-09-23T06:20:49.975Z,16.34
2023-09-23T06:21:49.958Z,16.33
2023-09-23T06:22:49.969Z,16.33
2023-09-23T06:23:49.967Z,16.36
2023-09-23T06:24:50.603Z,16.39
2023-09-23T06:25:50.640Z,16.42
2023-09-23T06:26:49.898Z,16.43
2023-09-23T06:27:49.895Z,16.44
2023-09-23T06:28:49.927Z,16.44
2023-09-23T06:29:52.301Z,16.46
2023-09-23T06:30:50.598Z,16.48
2023-09-23T06:31:49.859Z,16.49
2023-09-23T06:32:50.538Z,16.50
2023-09-23T06:33:50.493Z,16.51
2023-09-23T06:34:49.839Z,16.51
2023-09-23T06:35:52.208Z,16.51
2023-09-23T06:36:49.774Z,16.50
2023-09-23T06:37:49.833Z,16.52
2023-09-23T06:38:50.453Z,16.56
2023-09-23T06:39:49.766Z,16.57
2023-09-23T06:40:49.782Z,16.58
2023-09-23T06:41:50.429Z,16.60
2023-09-23T06:42:50.390Z,16.61
2023-09-23T06:43:49.724Z,16.65
2023-09-23T06:44:49.705Z,16.67
2023-09-23T06:45:50.384Z,16.70
2023-09-23T06:46:50.472Z,16.72
2023-09-23T06:47:50.425Z,16.74
2023-09-23T06:48:50.352Z,16.74
2023-09-23T06:49:49.674Z,16.76
2023-09-23T06:50:50.315Z,16.79
2023-09-23T06:51:50.301Z,16.85
2023-09-23T06:52:50.319Z,16.90
2023-09-23T06:53:49.942Z,16.92
2023-09-23T06:54:49.597Z,16.95
2023-09-23T06:55:50.304Z,17.00
2023-09-23T06:56:51.041Z,17.04
2023-09-23T06:57:50.246Z,17.06
2023-09-23T06:58:50.235Z,17.09
2023-09-23T06:59:50.230Z,17.11
2023-09-23T07:00:50.207Z,17.13
2023-09-23T07:01:49.800Z,17.18
2023-09-23T07:02:50.288Z,17.24
2023-09-23T07:03:51.870Z,17.28
2023-09-23T07:04:49.655Z,17.31
2023-09-23T07:05:51.022Z,17.35
2023-09-23T07:06:50.145Z,17.43
2023-09-23T07:07:50.168Z,17.53
2023-09-23T07:08:50.124Z,17.63
2023-09-23T07:09:49.456Z,17.65
2023-09-23T07:10:50.896Z,17.64
2023-09-23T07:11:49.418Z,17.64
2023-09-23T07:12:49.410Z,17.68
2023-09-23T07:13:50.141Z,17.80
2023-09-23T07:14:50.054Z,17.94
2023-09-23T07:15:50.818Z,18.07
2023-09-23T07:16:50.119Z,18.64
2023-09-23T07:17:50.064Z,19.50
2023-09-23T07:18:50.018Z,19.74
2023-09-23T07:19:50.033Z,19.77
2023-09-23T07:20:49.320Z,19.71
2023-09-23T07:21:50.243Z,20.08
2023-09-23T07:22:50.038Z,20.56
2023-09-23T07:23:49.942Z,20.79
2023-09-23T07:24:49.297Z,21.19
2023-09-23T07:25:49.294Z,21.52
2023-09-23T07:26:49.931Z,21.68
2023-09-23T07:27:51.184Z,22.18
2023-09-23T07:28:49.966Z,22.98
2023-09-23T07:29:49.894Z,23.22
2023-09-23T07:30:49.972Z,22.96
2023-09-23T07:31:49.902Z,22.56
2023-09-23T07:32:49.884Z,22.24
2023-09-23T07:33:50.243Z,22.00
2023-09-23T07:34:49.875Z,21.84
2023-09-23T07:35:49.830Z,21.67
2023-09-23T07:36:49.820Z,21.51
2023-09-23T07:37:49.848Z,21.32
2023-09-23T07:38:49.781Z,21.14
2023-09-23T07:39:49.720Z,20.98
2023-09-23T07:40:49.892Z,20.86
2023-09-23T07:41:49.770Z,20.84
2023-09-23T07:42:49.746Z,20.81
2023-09-23T07:43:49.788Z,20.74
2023-09-23T07:44:49.054Z,20.61
2023-09-23T07:45:50.524Z,20.41
2023-09-23T07:46:49.070Z,20.31
2023-09-23T07:47:49.060Z,20.31
2023-09-23T07:48:49.691Z,20.29
2023-09-23T07:49:49.122Z,20.23
2023-09-23T07:50:49.667Z,20.07
2023-09-23T07:51:49.678Z,19.92
2023-09-23T07:52:49.027Z,19.85
2023-09-23T07:53:49.631Z,19.82
2023-09-23T07:54:49.622Z,19.75
2023-09-23T07:55:49.648Z,19.67
2023-09-23T07:56:49.576Z,19.57
2023-09-23T07:57:49.584Z,19.53
2023-09-23T07:58:49.607Z,19.54
2023-09-23T07:59:48.883Z,19.53
2023-09-23T08:00:49.565Z,19.49
2023-09-23T08:01:49.595Z,19.43
2023-09-23T08:02:49.708Z,19.36
2023-09-23T08:03:49.556Z,19.27
2023-09-23T08:04:48.890Z,19.19
2023-09-23T08:05:48.939Z,19.12
2023-09-23T08:06:49.489Z,19.06
2023-09-23T08:07:49.489Z,19.02
2023-09-23T08:08:49.708Z,18.98
2023-09-23T08:09:48.778Z,18.99
2023-09-23T08:10:48.906Z,19.00
2023-09-23T08:11:49.444Z,18.95
2023-09-23T08:12:51.200Z,18.92
2023-09-23T08:13:49.448Z,18.91
2023-09-23T08:14:49.382Z,18.93
2023-09-23T08:15:49.427Z,18.93
2023-09-23T08:16:49.407Z,18.96
2023-09-23T08:17:49.400Z,18.95
2023-09-23T08:18:50.121Z,18.97
2023-09-23T08:19:49.403Z,19.15
2023-09-23T08:20:49.332Z,19.17
2023-09-23T08:21:48.682Z,19.16
2023-09-23T08:22:48.830Z,19.22
2023-09-23T08:23:49.300Z,19.36
2023-09-23T08:24:49.276Z,19.44
2023-09-23T08:25:49.349Z,19.47
2023-09-23T08:26:49.270Z,19.54
2023-09-23T08:27:49.280Z,19.69
2023-09-23T08:28:49.256Z,20.04
2023-09-23T08:29:51.037Z,20.00
2023-09-23T08:30:49.226Z,19.99
2023-09-23T08:31:48.623Z,20.16
2023-09-23T08:32:49.271Z,20.27
2023-09-23T08:33:49.422Z,20.43
2023-09-23T08:34:48.493Z,20.57
2023-09-23T08:35:48.555Z,20.67
2023-09-23T08:36:48.522Z,20.67
2023-09-23T08:37:48.506Z,20.64
2023-09-23T08:38:48.748Z,20.66
2023-09-23T08:39:49.130Z,20.57
2023-09-23T08:40:48.424Z,20.46
2023-09-23T08:41:49.383Z,20.39
2023-09-23T08:42:48.435Z,20.28
2023-09-23T08:43:49.072Z,20.21
2023-09-23T08:44:48.375Z,20.17
2023-09-23T08:45:49.107Z,20.10
2023-09-23T08:46:49.055Z,20.05
2023-09-23T08:47:49.034Z,20.09
2023-09-23T08:48:49.253Z,20.24
2023-09-23T08:49:48.364Z,20.38
2023-09-23T08:50:48.327Z,20.34
2023-09-23T08:51:48.967Z,20.33
2023-09-23T08:52:48.327Z,20.32
2023-09-23T08:53:48.978Z,20.28
2023-09-23T08:54:48.964Z,20.25
2023-09-23T08:55:48.950Z,20.19
2023-09-23T08:56:48.932Z,20.21
2023-09-23T08:57:48.913Z,20.23
2023-09-23T08:58:48.924Z,20.22
2023-09-23T08:59:48.910Z,20.26
2023-09-23T09:00:48.967Z,20.21
2023-09-23T09:01:48.872Z,20.15
2023-09-23T09:02:48.226Z,20.12
2023-09-23T09:03:48.197Z,20.10
2023-09-23T09:04:49.119Z,20.08
2023-09-23T09:05:48.291Z,20.07
2023-09-23T09:06:48.867Z,20.06
2023-09-23T09:07:48.147Z,20.12
2023-09-23T09:08:49.115Z,20.22
2023-09-23T09:09:48.877Z,20.39
2023-09-23T09:10:49.192Z,20.57
2023-09-23T09:11:48.799Z,20.85
2023-09-23T09:12:48.788Z,21.32
2023-09-23T09:13:48.752Z,21.38
2023-09-23T09:14:48.734Z,21.32
2023-09-23T09:15:48.742Z,21.24
2023-09-23T09:16:49.465Z,21.17
2023-09-23T09:17:48.718Z,21.16
2023-09-23T09:18:48.733Z,21.17
2023-09-23T09:19:50.621Z,21.18
2023-09-23T09:20:48.665Z,21.17
2023-09-23T09:21:48.667Z,21.14
2023-09-23T09:22:48.653Z,21.10
2023-09-23T09:23:48.713Z,21.08
2023-09-23T09:24:48.632Z,21.06
2023-09-23T09:25:48.645Z,21.06
2023-09-23T09:26:47.928Z,21.07
2023-09-23T09:27:48.610Z,21.07
2023-09-23T09:28:48.550Z,21.10
2023-09-23T09:29:50.347Z,21.17
2023-09-23T09:30:49.562Z,21.17
2023-09-23T09:31:48.615Z,21.17
2023-09-23T09:32:48.694Z,21.19
2023-09-23T09:33:48.530Z,21.16
2023-09-23T09:34:48.658Z,21.12
2023-09-23T09:35:48.529Z,21.14
2023-09-23T09:36:48.507Z,21.17
2023-09-23T09:37:50.195Z,21.17
2023-09-23T09:38:48.655Z,21.18
2023-09-23T09:39:48.470Z,21.16
2023-09-23T09:40:48.498Z,21.16
2023-09-23T09:41:48.448Z,21.13
2023-09-23T09:42:49.503Z,21.06
2023-09-23T09:43:48.410Z,21.04
2023-09-23T09:44:49.167Z,21.04
2023-09-23T09:45:48.400Z,21.14
2023-09-23T09:46:48.686Z,21.42
2023-09-23T09:47:48.467Z,21.60
2023-09-23T09:48:48.603Z,21.70
2023-09-23T09:49:48.176Z,21.71
2023-09-23T09:50:48.356Z,21.76
2023-09-23T09:51:48.337Z,21.82
2023-09-23T09:52:48.617Z,21.88
2023-09-23T09:53:48.320Z,21.95
2023-09-23T09:54:47.617Z,22.22
2023-09-23T09:55:47.623Z,22.42
2023-09-23T09:56:48.265Z,22.46
2023-09-23T09:57:48.255Z,22.42
2023-09-23T09:58:48.299Z,22.40
2023-09-23T09:59:47.586Z,22.50
2023-09-23T10:00:47.615Z,22.55
2023-09-23T10:01:47.643Z,22.56
2023-09-23T10:02:48.372Z,22.58
2023-09-23T10:03:48.820Z,22.58
2023-09-23T10:04:48.198Z,22.55
2023-09-23T10:05:47.745Z,22.51
2023-09-23T10:06:48.164Z,22.46
2023-09-23T10:07:48.162Z,22.45
2023-09-23T10:08:49.994Z,22.50
2023-09-23T10:09:47.454Z,22.55
2023-09-23T10:10:48.114Z,22.59
2023-09-23T10:11:47.462Z,22.59
2023-09-23T10:12:47.418Z,22.53
2023-09-23T10:13:48.097Z,22.46
2023-09-23T10:14:48.088Z,22.41
2023-09-23T10:15:48.055Z,22.38
2023-09-23T10:16:47.399Z,22.40
2023-09-23T10:17:47.451Z,22.96
2023-09-23T10:18:47.668Z,23.47
2023-09-23T10:19:48.029Z,23.69
2023-09-23T10:20:47.359Z,23.74
2023-09-23T10:21:48.018Z,23.93
2023-09-23T10:22:47.316Z,24.03
2023-09-23T10:23:47.997Z,23.93
2023-09-23T10:24:47.968Z,23.83
2023-09-23T10:25:47.308Z,23.77
2023-09-23T10:26:47.952Z,23.77
2023-09-23T10:27:47.272Z,23.73
2023-09-23T10:28:47.458Z,23.66
2023-09-23T10:29:47.271Z,23.54
2023-09-23T10:30:47.270Z,23.43
2023-09-23T10:31:47.229Z,23.36
2023-09-23T10:32:47.978Z,23.32
2023-09-23T10:33:47.888Z,23.40
2023-09-23T10:34:47.208Z,23.54
2023-09-23T10:35:47.190Z,23.62
2023-09-23T10:36:47.179Z,23.57
2023-09-23T10:37:47.180Z,23.53
2023-09-23T10:38:48.025Z,23.46
2023-09-23T10:39:47.797Z,23.45
2023-09-23T10:40:47.130Z,23.54
2023-09-23T10:41:47.102Z,23.62
2023-09-23T10:42:47.103Z,23.62
2023-09-23T10:43:47.169Z,23.61
2023-09-23T10:44:47.161Z,23.66
2023-09-23T10:45:47.063Z,23.67
2023-09-23T10:46:47.107Z,23.66
2023-09-23T10:47:47.183Z,23.73
2023-09-23T10:48:47.883Z,23.80
2023-09-23T10:49:47.706Z,23.93
2023-09-23T10:50:47.016Z,24.03
2023-09-23T10:51:47.021Z,24.16
2023-09-23T10:52:47.013Z,24.22
2023-09-23T10:53:47.007Z,24.26
2023-09-23T10:54:47.655Z,24.28
2023-09-23T10:55:47.652Z,24.30
2023-09-23T10:56:47.628Z,24.33
2023-09-23T10:57:47.918Z,24.39
2023-09-23T10:58:47.925Z,24.45
2023-09-23T10:59:47.599Z,24.50
2023-09-23T11:00:46.925Z,24.56
2023-09-23T11:01:46.933Z,24.63
2023-09-23T11:02:47.644Z,24.63
2023-09-23T11:03:47.002Z,24.64
2023-09-23T11:04:46.867Z,24.69
2023-09-23T11:05:47.530Z,24.75
2023-09-23T11:06:46.887Z,24.84
2023-09-23T11:07:46.832Z,24.78
2023-09-23T11:08:47.784Z,24.83
2023-09-23T11:09:46.824Z,24.88
2023-09-23T11:10:46.787Z,24.88
2023-09-23T11:11:46.810Z,24.89
2023-09-23T11:12:46.819Z,24.83
2023-09-23T11:13:47.444Z,24.73
2023-09-23T11:14:47.434Z,24.67
2023-09-23T11:15:47.407Z,24.65
2023-09-23T11:16:47.396Z,24.65
2023-09-23T11:17:47.471Z,24.70
2023-09-23T11:18:47.551Z,24.75
2023-09-23T11:19:46.708Z,24.79
2023-09-23T11:20:47.378Z,24.81
2023-09-23T11:21:46.689Z,24.80
2023-09-23T11:22:46.676Z,24.77
2023-09-23T11:23:46.680Z,24.77
2023-09-23T11:24:47.333Z,24.76
2023-09-23T11:25:46.689Z,24.75
2023-09-23T11:26:47.306Z,24.72
2023-09-23T11:27:46.655Z,24.73
2023-09-23T11:28:46.789Z,24.79
2023-09-23T11:29:46.610Z,24.81
2023-09-23T11:30:47.253Z,24.80
2023-09-23T11:31:47.287Z,24.71
2023-09-23T11:32:46.642Z,24.58
2023-09-23T11:33:47.227Z,24.49
2023-09-23T11:34:46.555Z,24.48
2023-09-23T11:35:46.536Z,24.51
2023-09-23T11:36:46.535Z,24.53
2023-09-23T11:37:46.517Z,24.57
2023-09-23T11:38:46.886Z,24.60
2023-09-23T11:39:47.144Z,24.54
2023-09-23T11:40:46.472Z,24.46
2023-09-23T11:41:46.455Z,24.35
2023-09-23T11:42:46.475Z,24.23
2023-09-23T11:43:46.484Z,24.12
2023-09-23T11:44:47.117Z,24.03
2023-09-23T11:45:47.101Z,23.92
2023-09-23T11:46:46.413Z,23.83
2023-09-23T11:47:46.464Z,23.76
2023-09-23T11:48:47.255Z,23.71
2023-09-23T11:49:46.398Z,23.65
2023-09-23T11:50:47.045Z,23.61
2023-09-23T11:51:47.027Z,23.56
2023-09-23T11:52:47.007Z,23.52
2023-09-23T11:53:46.993Z,23.54
2023-09-23T11:54:46.385Z,23.58
2023-09-23T11:55:46.300Z,23.64
2023-09-23T11:56:46.978Z,23.70
2023-09-23T11:57:46.959Z,23.74
2023-09-23T11:59:01.823Z,23.80
2023-09-23T11:59:47.976Z,23.83
2023-09-23T12:00:46.270Z,23.87
2023-09-23T12:01:46.917Z,23.91
2023-09-23T12:02:46.324Z,23.95
2023-09-23T12:03:47.079Z,23.99
2023-09-23T12:04:46.984Z,24.03
2023-09-23T12:05:46.272Z,24.09
2023-09-23T12:06:46.211Z,24.15
2023-09-23T12:07:46.201Z,24.24
2023-09-23T12:08:47.061Z,24.28
2023-09-23T12:09:46.160Z,24.32
2023-09-23T12:10:46.157Z,24.31
2023-09-23T12:11:46.146Z,24.31
2023-09-23T12:12:46.796Z,24.32
2023-09-23T12:13:46.787Z,24.34
2023-09-23T12:14:46.090Z,24.37
2023-09-23T12:15:46.136Z,24.38
2023-09-23T12:16:46.737Z,24.37
2023-09-23T12:17:46.845Z,24.38
2023-09-23T12:18:46.887Z,24.38
2023-09-23T12:19:46.750Z,24.41
2023-09-23T12:20:46.691Z,24.41
2023-09-23T12:21:46.048Z,24.41
2023-09-23T12:22:46.042Z,24.40
2023-09-23T12:23:46.026Z,24.34
2023-09-23T12:24:46.671Z,24.25
2023-09-23T12:25:46.637Z,24.11
2023-09-23T12:26:45.970Z,23.95
2023-09-23T12:27:45.964Z,23.79
2023-09-23T12:28:46.180Z,23.68
2023-09-23T12:29:45.972Z,23.61
2023-09-23T12:30:45.944Z,23.56
2023-09-23T12:31:45.909Z,23.48
2023-09-23T12:32:46.676Z,23.42
2023-09-23T12:33:45.882Z,23.36
2023-09-23T12:34:46.575Z,23.29
2023-09-23T12:35:46.551Z,23.23
2023-09-23T12:36:45.868Z,23.16
2023-09-23T12:37:46.533Z,23.09
2023-09-23T12:38:46.661Z,23.05
2023-09-23T12:39:46.480Z,23.04
2023-09-23T12:40:45.827Z,23.05
2023-09-23T12:41:45.798Z,23.10
2023-09-23T12:42:46.474Z,23.15
2023-09-23T12:43:45.824Z,23.17
2023-09-23T12:44:45.791Z,23.19
2023-09-23T12:45:45.891Z,23.17
2023-09-23T12:46:45.745Z,23.11
2023-09-23T12:47:56.905Z,23.02
2023-09-23T12:48:47.038Z,22.91
2023-09-23T12:49:46.393Z,22.80
2023-09-23T12:50:46.388Z,22.67
2023-09-23T12:51:45.694Z,22.55
2023-09-23T12:52:46.367Z,22.46